Time;durP1;ratioP1;P1;durP2;ratioP2;P2;SDS_P1;SDS_P2;PMS_P1;PMS_P2;Temp;Humidity;BMP_temperature;BMP_pressure;BME280_temperature;BME280_humidity;BME280_pressure;Samples;Min_cycle;Max_cycle;Signal;HPM_P1;HPM_P2
2022/03/26 00:00:16;;;;;;;26.98;17.40;;;11.10;66.10;;;;;;5032668;28;20040;-77
2022/03/26 00:02:44;;;;;;;25.80;16.52;;;11.10;66.20;;;;;;5033066;28;20757;-77
2022/03/26 00:05:10;;;;;;;22.35;16.60;;;11.00;66.20;;;;;;5032998;28;20033;-77
2022/03/26 00:07:36;;;;;;;34.53;16.77;;;10.90;66.70;;;;;;5032968;28;20029;-77
2022/03/26 00:10:15;;;;;;;25.70;17.15;;;10.90;66.60;;;;;;5026078;28;20029;-77
2022/03/26 00:12:44;;;;;;;20.77;15.93;;;11.00;65.50;;;;;;5024225;28;20033;-77
2022/03/26 00:15:16;;;;;;;25.88;16.15;;;11.20;65.00;;;;;;5032989;28;20021;-77
2022/03/26 00:17:43;;;;;;;34.67;17.70;;;11.60;64.00;;;;;;5032672;28;20030;-77
2022/03/26 00:20:09;;;;;;;33.15;16.45;;;11.70;62.90;;;;;;5032716;28;20120;-77
2022/03/26 00:22:35;;;;;;;27.33;18.02;;;11.80;62.60;;;;;;5032561;28;20075;-77
2022/03/26 00:25:04;;;;;;;23.83;17.02;;;12.00;62.20;;;;;;5031779;28;20029;-78
2022/03/26 00:27:30;;;;;;;25.83;16.80;;;12.00;63.00;;;;;;5032342;28;20506;-78
2022/03/26 00:29:57;;;;;;;22.77;16.02;;;11.90;62.90;;;;;;5032477;28;20044;-78
2022/03/26 00:32:23;;;;;;;23.77;16.27;;;11.80;62.80;;;;;;5031447;28;20025;-78
2022/03/26 00:34:54;;;;;;;26.60;16.50;;;11.70;62.90;;;;;;5023589;28;20033;-77
2022/03/26 00:37:20;;;;;;;26.48;16.27;;;11.60;62.80;;;;;;5031816;28;20025;-77
2022/03/26 00:39:58;;;;;;;25.38;16.92;;;11.80;62.30;;;;;;5022559;28;20103;-77
2022/03/26 00:43:14;;;;;;;27.05;16.52;;;11.90;61.90;;;;;;5032615;28;20497;-78
2022/03/26 00:45:43;;;;;;;29.33;16.17;;;11.90;61.80;;;;;;5024439;28;20112;-78
2022/03/26 00:48:15;;;;;;;32.30;17.50;;;12.00;61.80;;;;;;5032290;28;20037;-78
2022/03/26 00:50:41;;;;;;;28.30;16.38;;;12.10;61.50;;;;;;5032192;28;20495;-78
2022/03/26 00:53:07;;;;;;;27.05;17.13;;;12.00;61.70;;;;;;5031917;28;20033;-78
2022/03/26 00:55:34;;;;;;;26.70;16.60;;;11.90;62.00;;;;;;5031931;28;20520;-78
2022/03/26 00:58:00;;;;;;;24.70;16.42;;;11.90;62.70;;;;;;5032320;28;20026;-78
2022/03/26 01:00:52;;;;;;;26.33;16.88;;;11.80;62.30;;;;;;5031918;28;20120;-78
2022/03/26 01:03:28;;;;;;;25.65;17.45;;;11.80;62.50;;;;;;5030502;28;20044;-78
2022/03/26 01:05:57;;;;;;;28.17;16.75;;;11.90;62.50;;;;;;5026873;28;20029;-78
2022/03/26 01:08:27;;;;;;;25.00;17.40;;;11.80;62.90;;;;;;5031701;28;20451;-78
2022/03/26 01:11:16;;;;;;;22.13;17.10;;;11.80;62.80;;;;;;5026828;28;20050;-78
2022/03/26 01:13:56;;;;;;;30.30;17.42;;;11.90;62.50;;;;;;5014583;28;20542;-78
2022/03/26 01:16:30;;;;;;;21.10;17.02;;;11.90;62.40;;;;;;5030538;28;20025;-79
2022/03/26 01:19:07;;;;;;;25.65;17.02;;;12.00;62.20;;;;;;5031532;28;20035;-78
2022/03/26 01:21:33;;;;;;;30.33;17.40;;;12.00;62.40;;;;;;5031315;28;20033;-78
2022/03/26 01:24:01;;;;;;;23.00;17.25;;;12.00;62.00;;;;;;5030962;28;20025;-78
2022/03/26 01:26:30;;;;;;;22.83;16.58;;;12.00;62.70;;;;;;5030149;28;20029;-78
2022/03/26 01:29:19;;;;;;;25.25;17.00;;;12.00;62.10;;;;;;5023314;28;20501;-78
2022/03/26 01:31:59;;;;;;;27.10;17.67;;;12.10;61.60;;;;;;5029775;28;20124;-79
2022/03/26 01:34:27;;;;;;;27.90;17.17;;;12.10;61.90;;;;;;5030847;28;20064;-79
2022/03/26 01:40:57;;;;;;;24.15;16.35;;;12.10;61.70;;;;;;5030921;28;20059;-79
2022/03/26 01:44:17;;;;;;;24.27;16.30;;;12.10;62.20;;;;;;5019670;28;20030;-79
2022/03/26 01:50:40;;;;;;;33.78;17.23;;;11.90;62.50;;;;;;4955866;28;20043;-79
2022/03/26 01:53:09;;;;;;;31.15;16.55;;;11.90;62.60;;;;;;4962833;28;20105;-79
2022/03/26 01:55:51;;;;;;;26.15;16.27;;;11.90;62.90;;;;;;5021765;28;20058;-79
2022/03/26 01:58:23;;;;;;;27.27;17.73;;;11.90;62.90;;;;;;5028089;28;20045;-79
2022/03/26 02:01:32;;;;;;;24.63;17.05;;;11.80;63.10;;;;;;5029700;28;20042;-79
2022/03/26 02:03:56;;;;;;;26.33;16.65;;;11.70;63.50;;;;;;5018967;28;20041;-79
2022/03/26 02:06:28;;;;;;;30.20;16.33;;;11.60;63.60;;;;;;5029330;28;20037;-79
2022/03/26 02:12:59;;;;;;;22.63;16.05;;;11.50;64.10;;;;;;5008990;28;19916;-79
2022/03/26 02:15:22;;;;;;;30.38;16.88;;;11.50;64.50;;;;;;5010919;28;20053;-79
2022/03/26 02:17:57;;;;;;;25.20;16.67;;;11.40;64.60;;;;;;5029441;28;20036;-78
2022/03/26 02:20:27;;;;;;;25.48;16.15;;;11.40;64.70;;;;;;5029529;28;20076;-79
2022/03/26 02:23:30;;;;;;;30.25;17.55;;;11.50;64.40;;;;;;5029392;28;20036;-79
2022/03/26 02:26:08;;;;;;;28.60;16.75;;;11.60;64.50;;;;;;5025577;28;20400;-78
2022/03/26 02:28:35;;;;;;;24.02;16.92;;;11.60;64.40;;;;;;5026513;28;20045;-78
2022/03/26 02:31:01;;;;;;;23.75;16.27;;;11.60;64.50;;;;;;5019731;28;20033;-78
2022/03/26 02:33:33;;;;;;;29.38;16.48;;;11.60;64.50;;;;;;5029340;28;20029;-78
2022/03/26 02:36:09;;;;;;;24.45;16.05;;;11.60;64.90;;;;;;5023017;28;20029;-79
2022/03/26 02:38:37;;;;;;;28.58;17.40;;;11.50;64.70;;;;;;5019532;28;20025;-79
2022/03/26 02:41:21;;;;;;;26.60;16.50;;;11.40;64.90;;;;;;5028981;28;20440;-79
2022/03/26 02:43:50;;;;;;;23.42;15.80;;;11.50;65.20;;;;;;5015118;28;20113;-79
2022/03/26 02:46:43;;;;;;;21.88;15.90;;;11.40;65.40;;;;;;5030371;28;20026;-79
2022/03/26 02:49:12;;;;;;;27.67;16.60;;;11.40;65.20;;;;;;5020502;28;20042;-78
2022/03/26 02:51:42;;;;;;;28.02;16.98;;;11.40;65.20;;;;;;5028664;28;20030;-79
2022/03/26 02:54:20;;;;;;;27.42;15.82;;;11.50;65.10;;;;;;5020585;28;20034;-78
2022/03/26 02:56:54;;;;;;;25.25;17.13;;;11.60;64.70;;;;;;5029624;28;20100;-78
2022/03/26 02:59:28;;;;;;;24.77;17.50;;;11.60;64.40;;;;;;5030241;28;20064;-78
2022/03/26 03:03:14;;;;;;;39.47;16.63;;;11.70;64.70;;;;;;5030751;28;20587;-78
2022/03/26 03:05:50;;;;;;;23.05;17.10;;;11.70;64.60;;;;;;5011010;28;20038;-78
2022/03/26 03:08:53;;;;;;;28.20;17.23;;;11.70;64.70;;;;;;5007523;28;20461;-78
2022/03/26 03:11:44;;;;;;;23.58;16.17;;;11.60;64.60;;;;;;4986788;28;20019;-79
2022/03/26 03:14:45;;;;;;;25.13;15.18;;;11.50;64.70;;;;;;5026901;28;20046;-79
2022/03/26 03:17:16;;;;;;;21.98;15.95;;;11.50;65.90;;;;;;5029532;28;20021;-79
2022/03/26 03:23:14;;;;;;;22.02;16.48;;;11.40;65.30;;;;;;5026215;28;20428;-79
2022/03/26 03:26:12;;;;;;;23.55;16.17;;;11.40;65.20;;;;;;5030059;28;20034;-80
2022/03/26 03:28:53;;;;;;;23.15;16.73;;;11.40;65.30;;;;;;5021353;28;20057;-79
2022/03/26 03:31:20;;;;;;;27.27;16.33;;;11.40;65.30;;;;;;5032214;28;20025;-79
2022/03/26 03:33:59;;;;;;;22.90;15.93;;;11.40;65.50;;;;;;5033312;28;20949;-79
2022/03/26 03:36:30;;;;;;;26.45;16.52;;;11.30;65.50;;;;;;5033850;28;20025;-79
2022/03/26 03:39:02;;;;;;;23.73;16.25;;;11.20;66.00;;;;;;5033512;28;20034;-79
2022/03/26 03:41:28;;;;;;;25.77;16.20;;;11.20;67.20;;;;;;5026185;28;20039;-79
2022/03/26 03:44:02;;;;;;;24.70;16.67;;;11.20;66.80;;;;;;5033698;28;20044;-79
2022/03/26 03:46:34;;;;;;;21.77;16.42;;;11.20;66.10;;;;;;5032264;28;20029;-79
2022/03/26 03:49:03;;;;;;;23.60;15.77;;;11.30;66.60;;;;;;5028605;28;20417;-79
2022/03/26 03:51:41;;;;;;;30.77;16.70;;;11.20;66.60;;;;;;5031988;28;20541;-79
2022/03/26 03:54:37;;;;;;;23.17;15.65;;;11.20;66.60;;;;;;5032800;28;20040;-78
2022/03/26 03:57:09;;;;;;;27.92;15.90;;;11.20;66.40;;;;;;5029632;28;20041;-78
2022/03/26 03:59:37;;;;;;;22.27;16.45;;;11.20;66.20;;;;;;5032417;28;20021;-79
2022/03/26 04:02:09;;;;;;;27.52;16.73;;;11.30;66.10;;;;;;5030080;28;20109;-79
2022/03/26 04:04:44;;;;;;;22.63;16.55;;;11.30;65.70;;;;;;5025223;28;20030;-78
2022/03/26 04:07:44;;;;;;;29.70;16.75;;;11.40;65.50;;;;;;5030567;28;20029;-79
2022/03/26 04:10:17;;;;;;;23.08;16.50;;;11.50;65.20;;;;;;5031661;28;20057;-78
2022/03/26 04:12:47;;;;;;;32.15;16.25;;;11.60;64.90;;;;;;5032804;28;20441;-78
2022/03/26 04:15:42;;;;;;;27.50;16.33;;;11.60;64.60;;;;;;5032872;28;20076;-79
2022/03/26 04:18:13;;;;;;;27.40;16.65;;;11.80;64.20;;;;;;5032463;28;20116;-79
2022/03/26 04:20:45;;;;;;;24.50;16.60;;;11.80;64.00;;;;;;5032628;28;20021;-79
2022/03/26 04:23:39;;;;;;;26.30;16.07;;;11.90;64.30;;;;;;5031684;28;20155;-79
2022/03/26 04:26:08;;;;;;;24.95;15.48;;;11.90;63.80;;;;;;5029053;28;20179;-79
2022/03/26 04:29:01;;;;;;;19.48;15.18;;;11.90;63.50;;;;;;5028237;28;20037;-79
2022/03/26 04:31:30;;;;;;;;;;;11.90;63.70;;;;;;5024988;28;20041;-79
2022/03/26 04:34:04;;;;;;;25.23;14.60;;;11.80;64.10;;;;;;5030838;28;19920;-79
2022/03/26 04:36:37;;;;;;;24.65;15.80;;;11.80;64.10;;;;;;5032819;28;20481;-79
2022/03/26 04:39:06;;;;;;;;;;;11.90;64.00;;;;;;5031955;28;20140;-79
2022/03/26 04:42:14;;;;;;;21.13;14.45;;;11.90;64.30;;;;;;5032293;28;19932;-79
2022/03/26 04:44:43;;;;;;;25.60;15.40;;;11.90;64.30;;;;;;5030939;28;20037;-79
2022/03/26 04:47:09;;;;;;;22.45;15.45;;;11.80;64.70;;;;;;5031578;28;20447;-79
2022/03/26 04:49:46;;;;;;;22.17;14.80;;;11.70;64.60;;;;;;5024877;28;20025;-79
2022/03/26 04:52:17;;;;;;;26.13;15.77;;;11.70;64.60;;;;;;5029798;28;20033;-79
2022/03/26 04:54:49;;;;;;;24.48;14.85;;;11.70;64.90;;;;;;5031025;28;20017;-79
2022/03/26 04:57:18;;;;;;;22.67;14.37;;;11.60;65.80;;;;;;5032650;28;20108;-79
2022/03/26 05:00:09;;;;;;;24.55;14.90;;;11.60;64.40;;;;;;5031223;28;20026;-79
2022/03/26 05:03:10;;;;;;;22.92;15.02;;;11.60;64.50;;;;;;5019784;28;20037;-79
2022/03/26 05:05:40;;;;;;;25.23;15.02;;;11.70;64.60;;;;;;5029794;28;20032;-76
2022/03/26 05:08:14;;;;;;;23.13;15.57;;;11.70;64.40;;;;;;5031723;28;20045;-76
2022/03/26 05:11:22;;;;;;;22.52;15.75;;;11.80;64.00;;;;;;5030508;28;20313;-77
2022/03/26 05:13:46;;;;;;;27.02;14.40;;;11.80;64.20;;;;;;5022508;28;20049;-77
2022/03/26 05:16:33;;;;;;;23.23;14.80;;;11.90;64.00;;;;;;5031682;28;20045;-77
2022/03/26 05:19:05;;;;;;;22.75;14.65;;;12.00;63.70;;;;;;5024968;28;20104;-77
2022/03/26 05:21:31;;;;;;;29.30;15.65;;;12.00;63.40;;;;;;5031967;28;20030;-77
2022/03/26 05:24:29;;;;;;;23.08;15.75;;;12.00;63.70;;;;;;5031499;28;20029;-77
2022/03/26 05:27:03;;;;;;;19.30;14.73;;;12.10;63.60;;;;;;5025586;28;20041;-76
2022/03/26 05:29:36;;;;;;;25.30;14.45;;;12.20;63.20;;;;;;5030985;28;20033;-77
2022/03/26 05:32:04;;;;;;;21.52;14.95;;;12.30;63.50;;;;;;5010901;28;20420;-76
2022/03/26 05:34:58;;;;;;;;;;;;;;;;;;;;;
2022/03/26 05:37:27;;;;;;;25.83;14.38;;;12.40;62.60;;;;;;5029873;28;20017;-77
2022/03/26 05:40:03;;;;;;;20.40;14.82;;;12.50;63.10;;;;;;5027632;28;20029;-78
2022/03/26 05:42:49;;;;;;;26.05;15.32;;;12.50;62.30;;;;;;5031404;28;20135;-83
2022/03/26 05:45:26;;;;;;;22.63;15.43;;;12.60;63.90;;;;;;5027562;28;20088;-79
2022/03/26 05:48:01;;;;;;;25.35;15.70;;;12.60;63.00;;;;;;5031148;28;20025;-80
2022/03/26 05:50:49;;;;;;;24.33;14.32;;;12.60;62.80;;;;;;5026993;28;20033;-79
2022/03/26 05:53:37;;;;;;;;;;;;;;;;;;;;;
2022/03/26 05:56:15;;;;;;;38.33;15.73;;;12.70;62.60;;;;;;5027030;28;20071;-79
2022/03/26 06:02:01;;;;;;;25.50;15.50;;;12.90;63.00;;;;;;5029845;28;20412;-78
2022/03/26 06:04:30;;;;;;;20.17;15.30;;;13.00;62.70;;;;;;5030229;28;20029;-78
2022/03/26 06:07:05;;;;;;;21.10;15.35;;;13.10;61.80;;;;;;5030095;28;20404;-78
2022/03/26 06:09:40;;;;;;;24.25;15.50;;;13.10;62.10;;;;;;5028991;28;20568;-78
2022/03/26 06:12:07;;;;;;;24.23;15.20;;;13.20;62.50;;;;;;5026112;28;20396;-78
2022/03/26 06:14:34;;;;;;;24.27;15.65;;;13.30;62.20;;;;;;5030008;28;20041;-78
2022/03/26 06:17:00;;;;;;;23.98;15.13;;;13.30;61.50;;;;;;5030245;28;20056;-78
2022/03/26 06:19:26;;;;;;;27.92;15.27;;;13.40;61.90;;;;;;5030340;28;20079;-78
2022/03/26 06:21:55;;;;;;;20.98;15.15;;;13.50;60.90;;;;;;5031058;28;20030;-78
2022/03/26 06:24:21;;;;;;;22.20;15.60;;;13.60;60.80;;;;;;5028855;28;20120;-78
2022/03/26 06:26:49;;;;;;;24.88;15.00;;;13.60;60.70;;;;;;5031124;28;20018;-78
2022/03/26 06:29:16;;;;;;;24.85;14.43;;;13.70;61.70;;;;;;5030112;28;20088;-78
2022/03/26 06:31:42;;;;;;;21.75;15.27;;;13.70;61.00;;;;;;5030898;28;20477;-78
2022/03/26 06:34:08;;;;;;;26.63;15.93;;;13.80;60.80;;;;;;5020793;28;20120;-78
2022/03/26 06:36:37;;;;;;;18.73;14.23;;;13.90;60.10;;;;;;5029888;28;20109;-78
2022/03/26 06:39:06;;;;;;;21.60;14.80;;;13.90;60.30;;;;;;5030405;28;20025;-77
2022/03/26 06:42:04;;;;;;;19.95;14.02;;;14.00;60.70;;;;;;5030535;28;20037;-78
2022/03/26 06:44:33;;;;;;;21.17;14.55;;;14.20;60.50;;;;;;5029768;28;20049;-76
2022/03/26 06:46:59;;;;;;;24.08;14.52;;;14.20;59.50;;;;;;5031090;28;20030;-77
2022/03/26 06:49:30;;;;;;;22.48;14.00;;;14.30;59.80;;;;;;5030051;28;20037;-78
2022/03/26 06:51:56;;;;;;;21.27;14.75;;;14.40;59.40;;;;;;5029650;28;20033;-79
2022/03/26 06:54:26;;;;;;;22.23;13.23;;;14.50;59.40;;;;;;5029618;28;20037;-79
2022/03/26 06:56:51;;;;;;;27.50;15.00;;;14.50;58.80;;;;;;5029232;28;20051;-78
2022/03/26 06:59:17;;;;;;;20.55;14.43;;;14.60;58.60;;;;;;5030201;28;20108;-78
2022/03/26 07:01:46;;;;;;;25.38;14.70;;;14.70;58.80;;;;;;5031391;28;20018;-81
2022/03/26 07:04:12;;;;;;;24.38;15.05;;;14.80;59.30;;;;;;5023180;28;20021;-80
2022/03/26 07:06:50;;;;;;;21.88;13.88;;;14.90;58.40;;;;;;5034767;28;20029;-79
2022/03/26 07:09:16;;;;;;;21.95;14.02;;;15.00;59.20;;;;;;5024405;28;20038;-78
2022/03/26 07:11:42;;;;;;;22.73;13.48;;;15.00;58.80;;;;;;5034241;28;20017;-78
2022/03/26 07:14:07;;;;;;;18.40;13.18;;;15.10;58.90;;;;;;5033246;28;20040;-78
2022/03/26 07:16:39;;;;;;;16.65;13.50;;;15.20;57.50;;;;;;5032705;28;20022;-78
2022/03/26 07:19:05;;;;;;;23.33;13.73;;;15.30;57.70;;;;;;5032316;28;20036;-78
2022/03/26 07:21:32;;;;;;;23.20;13.43;;;15.30;56.90;;;;;;5034006;28;20030;-78
2022/03/26 07:24:01;;;;;;;21.63;13.43;;;15.50;57.00;;;;;;5033854;28;20388;-78
2022/03/26 07:26:29;;;;;;;23.27;14.32;;;15.60;56.60;;;;;;5033638;28;20057;-78
2022/03/26 07:28:55;;;;;;;18.98;13.07;;;15.70;56.60;;;;;;5029646;28;20045;-78
2022/03/26 07:31:25;;;;;;;19.20;13.02;;;15.80;56.60;;;;;;5033262;28;20013;-78
2022/03/26 07:33:51;;;;;;;19.02;12.93;;;15.90;56.50;;;;;;5032987;28;20156;-78
2022/03/26 07:36:17;;;;;;;25.90;13.05;;;16.00;55.90;;;;;;5031537;28;20112;-78
2022/03/26 07:38:43;;;;;;;19.98;13.43;;;16.10;56.30;;;;;;5031869;28;20476;-78
2022/03/26 07:41:09;;;;;;;17.65;11.68;;;16.20;55.50;;;;;;5031397;28;20127;-79
2022/03/26 07:43:36;;;;;;;16.20;12.68;;;16.30;54.30;;;;;;5031776;28;20033;-78
2022/03/26 07:46:05;;;;;;;16.20;12.07;;;16.40;55.00;;;;;;5032017;28;20025;-78
2022/03/26 07:48:31;;;;;;;23.85;13.25;;;16.50;53.80;;;;;;5032159;28;20033;-78
2022/03/26 07:50:56;;;;;;;19.63;12.48;;;16.60;54.50;;;;;;5033050;28;20036;-78
2022/03/26 07:53:27;;;;;;;20.45;13.88;;;16.70;53.60;;;;;;5033459;28;20028;-78
2022/03/26 07:55:53;;;;;;;20.77;12.75;;;16.90;53.40;;;;;;5027935;28;20129;-78
2022/03/26 07:58:22;;;;;;;19.00;12.68;;;16.90;53.10;;;;;;5033145;28;20112;-78
2022/03/26 08:00:50;;;;;;;18.83;12.68;;;17.00;53.60;;;;;;5031839;28;20037;-77
2022/03/26 08:03:16;;;;;;;17.45;12.07;;;17.10;52.80;;;;;;5033059;28;20053;-78
2022/03/26 08:05:42;;;;;;;23.25;13.07;;;17.20;52.60;;;;;;5032962;28;20041;-78
2022/03/26 08:08:08;;;;;;;23.50;12.73;;;17.30;51.20;;;;;;5031443;28;20040;-78
2022/03/26 08:10:33;;;;;;;34.92;13.02;;;17.40;51.10;;;;;;5031839;28;20036;-78
2022/03/26 08:12:59;;;;;;;18.50;12.68;;;17.50;51.30;;;;;;5032387;28;20439;-78
2022/03/26 08:15:25;;;;;;;19.17;12.90;;;17.60;52.00;;;;;;5031778;28;20092;-78
2022/03/26 08:17:51;;;;;;;19.35;12.00;;;17.60;52.10;;;;;;5031509;28;20083;-78
2022/03/26 08:20:17;;;;;;;20.80;12.65;;;17.70;51.60;;;;;;5032482;28;20033;-78
2022/03/26 08:22:42;;;;;;;17.20;11.73;;;17.90;49.80;;;;;;5032471;28;20334;-78
2022/03/26 08:26:19;;;;;;;16.02;12.05;;;17.90;49.70;;;;;;5032347;28;20030;-78
2022/03/26 08:27:57;;;;;;;15.38;11.63;;;18.00;49.90;;;;;;5032087;28;20033;-78
2022/03/26 08:30:26;;;;;;;19.38;11.90;;;18.20;49.60;;;;;;5032284;28;20029;-78
2022/03/26 08:32:52;;;;;;;18.85;12.02;;;18.30;49.50;;;;;;5032373;28;20506;-78
2022/03/26 08:35:18;;;;;;;17.35;12.15;;;18.40;49.00;;;;;;5032065;28;20108;-77
2022/03/26 08:37:43;;;;;;;17.48;12.00;;;18.50;48.60;;;;;;5032483;28;20029;-78
2022/03/26 08:40:10;;;;;;;20.15;12.30;;;18.60;49.20;;;;;;5032136;28;20024;-78
2022/03/26 08:42:36;;;;;;;18.13;12.30;;;18.70;48.50;;;;;;5032043;28;20033;-78
2022/03/26 08:45:05;;;;;;;15.88;11.95;;;18.80;48.00;;;;;;5031004;28;20389;-77
2022/03/26 08:47:31;;;;;;;18.25;12.48;;;18.80;47.90;;;;;;5031915;28;20031;-78
2022/03/26 08:49:57;;;;;;;17.40;11.48;;;18.90;47.50;;;;;;5031876;28;20365;-78
2022/03/26 08:52:23;;;;;;;16.98;11.60;;;19.00;47.80;;;;;;5032166;28;20109;-78
2022/03/26 08:55:01;;;;;;;16.35;11.30;;;19.00;46.50;;;;;;5031369;28;20036;-78
2022/03/26 08:57:27;;;;;;;18.63;11.50;;;19.10;46.10;;;;;;5031707;28;20033;-78
2022/03/26 08:59:53;;;;;;;14.13;10.43;;;19.20;46.20;;;;;;5031540;28;20045;-78
2022/03/26 09:02:19;;;;;;;15.57;10.82;;;19.20;46.80;;;;;;5032458;28;20056;-78
2022/03/26 09:04:45;;;;;;;15.70;11.25;;;19.30;47.50;;;;;;5031001;28;20061;-78
2022/03/26 09:07:11;;;;;;;19.33;11.25;;;19.50;45.70;;;;;;5032265;28;20481;-78
2022/03/26 09:09:40;;;;;;;17.63;11.25;;;19.60;45.60;;;;;;5030921;28;20033;-78
2022/03/26 09:12:07;;;;;;;24.92;11.57;;;19.70;44.80;;;;;;5031974;28;20029;-78
2022/03/26 09:14:33;;;;;;;17.48;11.20;;;19.70;45.50;;;;;;5031000;28;20530;-78
2022/03/26 09:16:59;;;;;;;16.30;11.40;;;19.80;45.20;;;;;;5032169;28;20030;-78
2022/03/26 09:19:25;;;;;;;16.35;11.20;;;19.80;44.80;;;;;;5021467;28;20045;-78
2022/03/26 09:21:53;;;;;;;13.02;11.38;;;19.90;44.90;;;;;;5032220;28;20381;-77
2022/03/26 09:24:19;;;;;;;18.25;12.32;;;20.00;44.60;;;;;;5031383;28;20034;-80
2022/03/26 09:26:45;;;;;;;20.08;11.27;;;20.10;43.70;;;;;;5031841;28;20028;-79
2022/03/26 09:29:11;;;;;;;21.13;11.98;;;20.20;42.80;;;;;;5030641;28;20127;-78
2022/03/26 09:31:37;;;;;;;18.67;11.15;;;20.20;45.00;;;;;;5030506;28;20376;-78
2022/03/26 09:34:02;;;;;;;16.35;11.52;;;20.30;43.10;;;;;;5029992;28;20397;-78
2022/03/26 09:36:28;;;;;;;18.67;12.10;;;20.40;43.10;;;;;;5029949;28;20031;-78
2022/03/26 09:38:54;;;;;;;17.27;11.50;;;20.40;43.10;;;;;;5031277;28;20423;-78
2022/03/26 09:41:22;;;;;;;18.40;12.52;;;20.50;44.10;;;;;;5030868;28;20036;-78
2022/03/26 09:43:49;;;;;;;17.75;11.90;;;20.70;45.40;;;;;;5030928;28;20631;-78
2022/03/26 09:46:15;;;;;;;15.07;12.00;;;20.90;43.40;;;;;;5031021;28;21026;-78
2022/03/26 09:48:42;;;;;;;15.90;10.50;;;21.00;41.90;;;;;;5030989;28;20045;-77
2022/03/26 09:51:08;;;;;;;18.70;11.10;;;20.70;50.00;;;;;;5030860;28;20579;-78
2022/03/26 09:53:35;;;;;;;16.40;10.25;;;20.10;53.50;;;;;;5031015;28;20036;-77
2022/03/26 09:56:01;;;;;;;15.15;10.00;;;19.50;55.30;;;;;;5030543;28;20065;-78
2022/03/26 09:58:27;;;;;;;16.20;9.57;;;19.10;56.60;;;;;;5030814;28;20034;-77
2022/03/26 10:00:55;;;;;;;19.77;10.13;;;18.80;57.40;;;;;;5021326;28;20584;-77
2022/03/26 10:03:21;;;;;;;20.15;10.40;;;18.60;59.40;;;;;;5028647;28;20030;-77
2022/03/26 10:06:03;;;;;;;21.33;10.60;;;18.60;60.00;;;;;;5030362;28;20029;-77
2022/03/26 10:08:33;;;;;;;15.98;10.30;;;18.50;61.50;;;;;;5030585;28;20041;-77
2022/03/26 10:10:59;;;;;;;19.83;10.98;;;18.30;60.70;;;;;;5030276;28;20061;-77
2022/03/26 10:13:34;;;;;;;19.40;10.85;;;18.10;58.80;;;;;;5030542;28;20041;-77
2022/03/26 10:16:11;;;;;;;22.73;10.10;;;18.10;58.30;;;;;;5026654;28;20026;-77
2022/03/26 10:18:45;;;;;;;18.35;10.38;;;18.20;57.90;;;;;;5026568;28;20038;-77
2022/03/26 10:21:18;;;;;;;16.17;10.90;;;18.30;57.50;;;;;;5030535;28;20138;-77
2022/03/26 10:23:50;;;;;;;18.75;10.63;;;18.30;56.40;;;;;;5022049;28;20384;-77
2022/03/26 10:26:28;;;;;;;19.00;10.43;;;18.50;56.50;;;;;;5030585;28;20025;-77
2022/03/26 10:28:58;;;;;;;14.35;9.90;;;18.70;55.50;;;;;;5022702;28;20084;-77
2022/03/26 10:34:13;;;;;;;19.00;10.60;;;19.00;55.50;;;;;;5030509;28;20091;-77
2022/03/26 10:36:42;;;;;;;21.77;10.55;;;18.90;54.30;;;;;;5030420;28;20703;-77
2022/03/26 10:39:14;;;;;;;13.70;10.13;;;19.00;53.60;;;;;;5034224;28;20562;-77
2022/03/26 10:41:40;;;;;;;14.90;9.77;;;19.10;53.00;;;;;;5023390;28;20128;-77
2022/03/26 10:44:12;;;;;;;17.15;9.95;;;19.20;53.10;;;;;;5033882;28;20479;-77
2022/03/26 10:46:50;;;;;;;17.80;10.63;;;19.30;53.80;;;;;;5034078;28;20117;-77
2022/03/26 10:49:25;;;;;;;17.48;10.20;;;19.30;55.00;;;;;;5033696;28;20144;-77
2022/03/26 10:51:51;;;;;;;15.13;9.80;;;19.50;53.60;;;;;;5034271;28;20515;-77
2022/03/26 10:54:17;;;;;;;15.05;9.40;;;19.60;50.70;;;;;;5024452;28;20026;-77
2022/03/26 10:56:43;;;;;;;12.20;8.98;;;19.60;49.90;;;;;;5034496;28;20102;-77
2022/03/26 10:59:08;;;;;;;18.60;9.88;;;19.80;48.20;;;;;;5033556;28;20094;-77
2022/03/26 11:01:35;;;;;;;17.02;10.43;;;19.90;47.00;;;;;;5034492;28;20021;-78
2022/03/26 11:04:02;;;;;;;14.57;10.77;;;19.90;46.50;;;;;;5034128;28;20032;-77
2022/03/26 11:06:29;;;;;;;17.05;10.60;;;19.90;46.10;;;;;;5033894;28;20025;-78
2022/03/26 11:09:01;;;;;;;15.43;10.68;;;19.80;51.40;;;;;;5033837;28;20493;-78
2022/03/26 11:11:37;;;;;;;13.25;10.50;;;19.60;54.80;;;;;;5026283;28;20026;-78
2022/03/26 11:14:29;;;;;;;16.77;9.60;;;19.50;53.20;;;;;;5032511;28;20040;-78
2022/03/26 11:17:26;;;;;;;20.02;11.52;;;19.30;51.60;;;;;;5034595;28;20030;-78
2022/03/26 11:20:25;;;;;;;13.75;11.00;;;19.20;52.70;;;;;;5032979;28;20079;-78
2022/03/26 11:23:03;;;;;;;14.90;10.55;;;19.60;52.30;;;;;;5027329;28;20052;-78
2022/03/26 11:25:44;;;;;;;11.60;9.15;;;19.60;51.40;;;;;;5029407;28;20492;-78
2022/03/26 11:28:31;;;;;;;13.90;9.88;;;19.60;49.50;;;;;;5033709;28;20041;-78
2022/03/26 11:31:09;;;;;;;11.63;8.85;;;19.40;50.00;;;;;;5028041;28;20048;-78
2022/03/26 11:33:37;;;;;;;19.25;10.30;;;19.40;49.00;;;;;;5029601;28;20396;-78
2022/03/26 11:36:08;;;;;;;14.60;10.80;;;19.50;48.30;;;;;;5033592;28;20030;-77
2022/03/26 11:38:38;;;;;;;18.23;10.30;;;19.60;48.10;;;;;;5029474;28;20121;-78
2022/03/26 11:41:08;;;;;;;13.07;10.82;;;19.40;48.40;;;;;;5033357;28;20033;-78
2022/03/26 11:43:43;;;;;;;10.57;9.32;;;19.50;48.10;;;;;;5033284;28;20112;-78
2022/03/26 11:51:56;;;;;;;17.35;10.77;;;19.30;50.00;;;;;;5033133;28;20056;-78
2022/03/26 11:54:22;;;;;;;15.07;9.93;;;19.20;49.80;;;;;;5032394;28;20492;-78
2022/03/26 11:57:25;;;;;;;13.98;10.15;;;19.10;52.40;;;;;;5032067;28;20050;-78
2022/03/26 11:59:52;;;;;;;17.55;10.75;;;19.20;53.30;;;;;;5031878;28;20033;-78
2022/03/26 12:02:35;;;;;;;15.23;10.85;;;19.10;53.40;;;;;;5033700;28;20049;-78
2022/03/26 12:07:50;;;;;;;15.65;11.05;;;19.30;54.20;;;;;;5026367;28;20060;-78
2022/03/26 12:10:19;;;;;;;22.00;11.35;;;19.40;51.30;;;;;;5032795;28;20041;-78
2022/03/26 12:13:03;;;;;;;15.68;11.60;;;19.30;53.10;;;;;;5032519;28;20017;-78
2022/03/26 12:15:34;;;;;;;18.75;12.93;;;19.20;52.60;;;;;;5029710;28;20064;-78
2022/03/26 12:18:12;;;;;;;17.63;13.25;;;19.90;51.50;;;;;;5032455;28;20033;-78
2022/03/26 12:20:39;;;;;;;21.08;13.13;;;22.90;47.70;;;;;;5032385;28;20026;-78
2022/03/26 12:23:15;;;;;;;22.08;13.68;;;24.60;45.90;;;;;;5032526;28;20116;-78
2022/03/26 12:25:53;;;;;;;22.88;12.95;;;25.80;44.30;;;;;;5032366;28;20106;-78
2022/03/26 12:28:25;;;;;;;19.40;13.23;;;26.80;42.80;;;;;;5032213;28;20044;-79
2022/03/26 12:30:56;;;;;;;18.85;13.55;;;27.80;42.10;;;;;;5032369;28;20428;-78
2022/03/26 12:33:23;;;;;;;21.00;14.35;;;27.70;41.80;;;;;;5032376;28;20310;-78
2022/03/26 12:35:51;;;;;;;17.65;13.75;;;27.20;41.60;;;;;;5032153;28;20041;-78
2022/03/26 12:38:18;;;;;;;22.02;14.60;;;26.60;42.20;;;;;;5028353;28;20400;-78
2022/03/26 12:40:56;;;;;;;19.58;13.55;;;26.20;42.20;;;;;;5025405;28;20531;-79
2022/03/26 12:43:25;;;;;;;17.67;14.13;;;27.40;41.80;;;;;;5032340;28;20036;-78
2022/03/26 12:45:52;;;;;;;21.90;14.95;;;27.40;41.20;;;;;;5032353;28;20431;-78
2022/03/26 12:48:23;;;;;;;21.17;15.07;;;26.20;41.80;;;;;;5032093;28;20033;-78
2022/03/26 12:50:58;;;;;;;25.23;15.75;;;26.10;42.80;;;;;;5031954;28;20091;-79
2022/03/26 12:53:23;;;;;;;18.48;15.10;;;26.80;39.90;;;;;;5031935;28;20040;-78
2022/03/26 12:55:54;;;;;;;21.88;14.63;;;26.90;39.80;;;;;;5031694;28;20049;-78
2022/03/26 13:01:12;;;;;;;16.13;13.48;;;27.80;38.30;;;;;;5028905;28;20032;-78
2022/03/26 13:03:38;;;;;;;19.83;13.50;;;28.80;38.50;;;;;;5022392;28;20029;-78
2022/03/26 13:06:13;;;;;;;20.02;13.73;;;29.00;38.80;;;;;;5031662;28;20029;-78
2022/03/26 13:08:46;;;;;;;20.58;13.55;;;28.90;38.70;;;;;;5022578;28;20034;-78
2022/03/26 13:11:12;;;;;;;19.02;13.75;;;29.90;37.70;;;;;;5031558;28;20021;-79
2022/03/26 13:13:43;;;;;;;31.20;13.77;;;30.90;37.00;;;;;;5022335;28;20384;-77
2022/03/26 13:16:13;;;;;;;20.05;13.50;;;30.20;37.40;;;;;;5031619;28;20049;-80
2022/03/26 13:19:00;;;;;;;26.15;14.30;;;31.10;37.00;;;;;;5018134;28;20064;-78
2022/03/26 13:21:28;;;;;;;25.23;14.85;;;30.90;36.40;;;;;;5031357;28;20029;-78
2022/03/26 13:24:07;;;;;;;20.45;14.10;;;29.60;36.90;;;;;;5031693;28;20041;-78
2022/03/26 13:26:40;;;;;;;19.75;13.35;;;29.50;37.10;;;;;;5046841;28;20029;-78
2022/03/26 13:29:10;;;;;;;17.85;13.25;;;29.40;36.90;;;;;;5030968;28;20484;-79
2022/03/26 13:31:47;;;;;;;18.50;13.63;;;29.60;37.30;;;;;;5031393;28;20443;-79